Time;durP1;ratioP1;P1;durP2;ratioP2;P2;SDS_P1;SDS_P2;PMS_P1;PMS_P2;Temp;Humidity;BMP_temperature;BMP_pressure;BME280_temperature;BME280_humidity;BME280_pressure;Samples;Min_cycle;Max_cycle;Signal;HPM_P1;HPM_P2
2023/11/06 00:01:52;;;;;;;4.30;1.25;;;;;;;11.68;100.00;99269.59;5319631;27;20060;-75
2023/11/06 00:04:24;;;;;;;6.05;1.45;;;;;;;11.69;100.00;99279.09;5333872;27;20027;-75
2023/11/06 00:06:56;;;;;;;3.85;1.10;;;;;;;11.68;100.00;99287.94;5336584;27;20041;-74
2023/11/06 00:09:28;;;;;;;5.57;1.15;;;;;;;11.64;100.00;99278.00;5333924;27;20031;-75
2023/11/06 00:12:00;;;;;;;3.92;1.67;;;;;;;11.62;100.00;99286.03;5336706;27;20050;-74
2023/11/06 00:14:32;;;;;;;4.28;1.75;;;;;;;11.57;100.00;99290.16;5335688;27;20095;-75
2023/11/06 00:17:04;;;;;;;5.03;1.05;;;;;;;11.50;100.00;99286.59;5334338;27;20472;-74
2023/11/06 00:19:36;;;;;;;2.72;0.90;;;;;;;11.53;100.00;99299.38;5337604;27;20153;-75
2023/11/06 00:22:08;;;;;;;4.25;0.70;;;;;;;11.49;100.00;99295.47;5336124;27;20133;-75
2023/11/06 00:24:40;;;;;;;3.53;0.70;;;;;;;11.43;100.00;99296.97;5333721;27;20035;-74
2023/11/06 00:27:11;;;;;;;2.17;0.80;;;;;;;11.42;100.00;99306.66;5337854;27;20481;-74
2023/11/06 00:29:43;;;;;;;2.20;0.70;;;;;;;11.37;100.00;99295.06;5336963;27;20418;-75
2023/11/06 00:32:15;;;;;;;3.13;0.77;;;;;;;11.32;100.00;99313.91;5328521;27;20103;-75
2023/11/06 00:34:47;;;;;;;2.25;0.70;;;;;;;11.29;100.00;99321.28;5336672;27;20035;-75
2023/11/06 00:37:19;;;;;;;3.58;0.70;;;;;;;11.27;100.00;99323.28;5335707;27;20118;-74
2023/11/06 00:39:51;;;;;;;4.43;1.20;;;;;;;11.17;100.00;99320.88;5335313;27;20041;-74
2023/11/06 00:42:24;;;;;;;2.80;0.68;;;;;;;11.18;100.00;99336.44;5335275;27;20023;-75
2023/11/06 00:44:56;;;;;;;3.85;0.93;;;;;;;11.20;100.00;99338.88;5336103;27;20054;-75
2023/11/06 00:47:28;;;;;;;3.00;1.08;;;;;;;11.19;100.00;99337.25;5339160;27;20034;-75
2023/11/06 00:50:00;;;;;;;3.10;1.00;;;;;;;11.17;100.00;99339.22;5337288;27;20110;-75
2023/11/06 00:52:32;;;;;;;5.55;1.20;;;;;;;11.13;100.00;99345.78;5335519;27;20027;-75
2023/11/06 00:55:04;;;;;;;4.10;1.10;;;;;;;11.08;100.00;99348.94;5338243;27;20030;-75
2023/11/06 00:57:36;;;;;;;4.50;1.37;;;;;;;11.12;100.00;99347.59;5334259;27;20032;-75
2023/11/06 01:00:10;;;;;;;4.18;1.25;;;;;;;11.05;100.00;99343.22;5325176;27;20061;-75
2023/11/06 01:02:42;;;;;;;3.92;1.27;;;;;;;11.12;100.00;99349.41;5335030;27;20034;-74
2023/11/06 01:05:14;;;;;;;6.82;1.55;;;;;;;11.15;100.00;99344.63;5335202;27;20114;-74
2023/11/06 01:07:47;;;;;;;6.25;1.63;;;;;;;11.16;100.00;99348.88;5334179;27;20388;-75
2023/11/06 01:10:19;;;;;;;6.88;1.65;;;;;;;11.11;100.00;99339.91;5336312;27;20020;-75
2023/11/06 01:12:52;;;;;;;6.00;1.98;;;;;;;11.18;100.00;99356.59;5335335;27;20054;-75
2023/11/06 01:15:24;;;;;;;4.72;1.63;;;;;;;11.16;100.00;99361.19;5334303;27;20134;-75
2023/11/06 01:17:56;;;;;;;5.35;1.08;;;;;;;11.15;100.00;99372.66;5334286;27;20027;-75
2023/11/06 01:20:28;;;;;;;5.53;1.33;;;;;;;11.13;100.00;99369.38;5334124;27;20035;-75
2023/11/06 01:23:00;;;;;;;5.85;1.55;;;;;;;11.17;100.00;99368.91;5335306;27;20102;-75
2023/11/06 01:25:32;;;;;;;6.07;1.88;;;;;;;11.18;100.00;99372.31;5335109;27;20102;-75
2023/11/06 01:28:04;;;;;;;5.00;1.65;;;;;;;11.20;100.00;99380.81;5318012;27;20066;-75
2023/11/06 01:30:36;;;;;;;4.28;1.58;;;;;;;11.19;100.00;99387.06;5336263;27;20043;-75
2023/11/06 01:33:08;;;;;;;6.40;1.80;;;;;;;11.17;100.00;99382.00;5332956;27;20472;-75
2023/11/06 01:35:40;;;;;;;7.70;2.40;;;;;;;11.22;100.00;99389.34;5331996;27;20019;-75
2023/11/06 01:38:12;;;;;;;3.80;1.38;;;;;;;11.19;100.00;99395.75;5331355;27;20441;-75
2023/11/06 01:40:44;;;;;;;6.90;1.95;;;;;;;11.24;100.00;99403.09;5334058;27;20023;-75
2023/11/06 01:43:23;;;;;;;6.43;1.38;;;;;;;11.30;100.00;99412.91;5313944;27;20404;-75
2023/11/06 01:45:55;;;;;;;8.10;1.58;;;;;;;11.16;100.00;99416.22;5331300;27;20039;-75
2023/11/06 01:48:29;;;;;;;4.05;1.25;;;;;;;11.19;100.00;99423.75;5333523;27;20057;-75
2023/11/06 01:51:01;;;;;;;4.28;1.58;;;;;;;11.18;100.00;99416.88;5333325;27;20038;-75
2023/11/06 01:53:34;;;;;;;5.55;1.30;;;;;;;11.13;100.00;99417.38;5315836;27;20027;-74
2023/11/06 01:56:06;;;;;;;4.07;1.17;;;;;;;11.17;100.00;99430.97;5331780;27;20342;-75
2023/11/06 01:58:38;;;;;;;5.72;1.45;;;;;;;11.17;100.00;99434.44;5331333;27;20028;-74
2023/11/06 02:01:10;;;;;;;5.82;1.27;;;;;;;11.13;100.00;99433.09;5333641;27;20043;-75
2023/11/06 02:03:42;;;;;;;5.25;1.25;;;;;;;11.10;100.00;99433.47;5331343;28;20135;-75
2023/11/06 02:06:14;;;;;;;3.55;1.23;;;;;;;11.06;100.00;99429.53;5334088;28;20459;-74
2023/11/06 02:08:46;;;;;;;3.30;1.30;;;;;;;11.06;100.00;99432.16;5334162;28;20500;-74
2023/11/06 02:11:19;;;;;;;5.63;1.58;;;;;;;11.06;100.00;99444.41;5333279;28;20455;-74
2023/11/06 02:13:51;;;;;;;4.75;1.52;;;;;;;11.09;100.00;99449.34;5333191;28;20035;-74
2023/11/06 02:16:22;;;;;;;4.88;1.27;;;;;;;11.07;100.00;99451.31;5334545;28;20038;-74
2023/11/06 02:18:54;;;;;;;5.07;1.30;;;;;;;11.04;100.00;99457.72;5329169;28;20042;-74
2023/11/06 02:21:26;;;;;;;6.50;1.45;;;;;;;11.03;100.00;99463.13;5326784;28;20033;-74
2023/11/06 02:23:58;;;;;;;4.03;1.20;;;;;;;11.01;100.00;99460.66;5334352;28;20045;-74
2023/11/06 02:26:30;;;;;;;3.92;1.10;;;;;;;11.00;100.00;99455.59;5334259;28;20524;-74
2023/11/06 02:29:02;;;;;;;4.80;1.30;;;;;;;10.99;100.00;99467.06;5332368;28;20037;-74
2023/11/06 02:31:34;;;;;;;5.13;1.77;;;;;;;10.96;100.00;99474.25;5332892;27;20030;-74
2023/11/06 02:34:06;;;;;;;2.92;0.98;;;;;;;10.93;100.00;99485.06;5338078;27;20035;-74
2023/11/06 02:36:40;;;;;;;2.67;1.02;;;;;;;10.91;100.00;99463.47;5336304;27;20612;-74
2023/11/06 02:39:12;;;;;;;5.75;1.52;;;;;;;10.93;100.00;99465.91;5314498;27;20039;-74
2023/11/06 02:41:44;;;;;;;5.20;1.83;;;;;;;10.88;100.00;99465.59;5337207;27;20031;-74
2023/11/06 02:44:15;;;;;;;4.10;1.35;;;;;;;10.89;100.00;99483.75;5338018;27;20034;-74
2023/11/06 02:46:47;;;;;;;4.00;1.08;;;;;;;10.89;100.00;99478.53;5328539;27;20202;-74
2023/11/06 02:49:19;;;;;;;3.97;1.10;;;;;;;10.89;100.00;99493.44;5336766;27;20041;-73
2023/11/06 02:51:52;;;;;;;5.78;1.02;;;;;;;10.88;100.00;99489.19;5336771;27;20033;-73
2023/11/06 02:54:25;;;;;;;5.95;1.40;;;;;;;10.89;100.00;99483.75;5336205;27;20045;-73
2023/11/06 02:56:57;;;;;;;3.38;1.00;;;;;;;10.88;100.00;99497.03;5337907;27;20035;-73
2023/11/06 02:59:29;;;;;;;4.20;1.13;;;;;;;10.86;100.00;99499.00;5338888;27;20126;-73
2023/11/06 03:02:01;;;;;;;3.78;1.20;;;;;;;10.84;100.00;99496.56;5335475;27;20038;-73
2023/11/06 03:04:33;;;;;;;5.17;1.30;;;;;;;10.88;100.00;99500.47;5335015;27;20031;-73
2023/11/06 03:07:05;;;;;;;3.97;1.50;;;;;;;10.86;100.00;99512.91;5336409;27;20053;-73
2023/11/06 03:09:37;;;;;;;5.63;1.50;;;;;;;10.83;100.00;99515.84;5336746;27;20039;-73
2023/11/06 03:12:09;;;;;;;3.53;1.00;;;;;;;10.88;100.00;99518.00;5328539;27;20028;-73
2023/11/06 03:14:41;;;;;;;4.32;1.23;;;;;;;10.91;100.00;99505.41;5333125;27;20023;-73
2023/11/06 03:17:14;;;;;;;4.85;1.27;;;;;;;10.88;100.00;99508.34;5337437;27;20026;-73
2023/11/06 03:19:46;;;;;;;3.13;1.00;;;;;;;10.93;100.00;99519.13;5332283;27;20027;-73
2023/11/06 03:22:17;;;;;;;2.33;1.00;;;;;;;10.84;100.00;99517.50;5335788;27;20031;-73
2023/11/06 03:24:49;;;;;;;4.07;1.40;;;;;;;10.88;100.00;99523.25;5315794;27;20045;-73
2023/11/06 03:27:21;;;;;;;5.97;1.23;;;;;;;10.93;100.00;99532.22;5334489;27;20031;-73
2023/11/06 03:29:53;;;;;;;3.72;1.08;;;;;;;10.90;100.00;99526.50;5334812;27;20037;-73
2023/11/06 03:32:25;;;;;;;2.95;0.98;;;;;;;10.88;100.00;99538.97;5335469;27;20026;-73
2023/11/06 03:34:57;;;;;;;5.88;1.13;;;;;;;10.89;100.00;99538.78;5331791;27;20476;-73
2023/11/06 03:37:29;;;;;;;3.78;1.02;;;;;;;10.90;100.00;99542.22;5336627;27;20631;-73
2023/11/06 03:40:01;;;;;;;4.70;1.70;;;;;;;10.89;100.00;99543.22;5331975;27;20037;-73
2023/11/06 03:42:33;;;;;;;4.57;1.17;;;;;;;10.92;100.00;99542.91;5331778;27;20052;-73
2023/11/06 03:45:05;;;;;;;7.40;1.23;;;;;;;10.91;100.00;99543.84;5335779;27;20064;-73
2023/11/06 03:47:37;;;;;;;3.88;1.38;;;;;;;10.89;100.00;99545.84;5337312;27;20046;-73
2023/11/06 03:50:09;;;;;;;3.90;1.30;;;;;;;10.88;100.00;99550.25;5336350;27;20027;-73
2023/11/06 03:52:41;;;;;;;5.13;1.08;;;;;;;10.90;100.00;99553.53;5334469;27;20035;-73
2023/11/06 03:55:13;;;;;;;3.78;1.17;;;;;;;10.95;100.00;99560.91;5336005;27;20093;-73
2023/11/06 03:57:45;;;;;;;3.30;1.02;;;;;;;10.84;100.00;99556.81;5335400;27;20023;-73
2023/11/06 04:00:18;;;;;;;4.15;1.27;;;;;;;10.87;100.00;99568.75;5334486;27;20047;-73
2023/11/06 04:02:50;;;;;;;4.65;1.10;;;;;;;10.88;100.00;99570.41;5335317;27;20023;-73
2023/11/06 04:05:22;;;;;;;6.05;1.60;;;;;;;10.80;100.00;99575.66;5335628;27;20041;-73
2023/11/06 04:07:53;;;;;;;4.78;1.52;;;;;;;10.81;100.00;99567.63;5325968;27;20035;-73
2023/11/06 04:10:26;;;;;;;4.78;1.17;;;;;;;10.79;100.00;99573.97;5334174;27;20031;-73
2023/11/06 04:12:58;;;;;;;4.43;1.30;;;;;;;10.85;100.00;99573.34;5335302;27;20034;-73
2023/11/06 04:15:30;;;;;;;3.72;1.17;;;;;;;10.72;100.00;99563.38;5315604;27;20444;-73
2023/11/06 04:18:03;;;;;;;5.15;1.13;;;;;;;10.81;100.00;99579.91;5333191;27;20113;-73
2023/11/06 04:20:35;;;;;;;5.28;1.38;;;;;;;10.85;100.00;99578.59;5335852;27;20400;-73
2023/11/06 04:23:09;;;;;;;4.40;1.20;;;;;;;10.87;100.00;99584.47;5337395;27;20027;-73
2023/11/06 04:25:40;;;;;;;6.70;1.75;;;;;;;10.86;100.00;99588.06;5334141;27;20030;-73
2023/11/06 04:28:12;;;;;;;5.95;1.42;;;;;;;10.87;100.00;99605.44;5333849;27;20534;-73
2023/11/06 04:30:44;;;;;;;4.32;1.10;;;;;;;10.87;100.00;99598.41;5334931;27;20037;-73
2023/11/06 04:33:16;;;;;;;3.85;0.88;;;;;;;10.91;100.00;99602.34;5334154;27;20030;-73
2023/11/06 04:35:48;;;;;;;3.03;1.05;;;;;;;10.90;100.00;99611.16;5325151;27;20031;-73
2023/11/06 04:38:20;;;;;;;2.80;0.90;;;;;;;10.90;100.00;99611.16;5335093;27;20037;-73
2023/11/06 04:40:52;;;;;;;7.72;1.85;;;;;;;10.86;100.00;99611.66;5332874;27;20026;-73
2023/11/06 04:43:24;;;;;;;4.57;1.40;;;;;;;10.87;100.00;99614.13;5333754;27;20031;-74
2023/11/06 04:45:55;;;;;;;3.13;1.15;;;;;;;10.84;100.00;99618.88;5334621;27;20052;-73
2023/11/06 04:48:28;;;;;;;5.57;1.73;;;;;;;10.85;100.00;99612.66;5335459;27;20037;-73
2023/11/06 04:51:00;;;;;;;3.92;1.40;;;;;;;10.87;100.00;99622.00;5315673;27;20042;-73
2023/11/06 04:53:33;;;;;;;4.28;1.15;;;;;;;10.85;100.00;99625.75;5334354;27;20395;-73
2023/11/06 04:56:05;;;;;;;6.65;1.20;;;;;;;10.86;100.00;99628.19;5333372;27;20034;-73
2023/11/06 04:58:37;;;;;;;5.18;1.45;;;;;;;10.83;100.00;99627.69;5334996;27;20061;-73
2023/11/06 05:01:09;;;;;;;5.43;1.50;;;;;;;10.80;100.00;99625.41;5333921;27;20043;-74
2023/11/06 05:03:42;;;;;;;6.05;1.45;;;;;;;10.83;100.00;99633.75;5334640;27;20484;-73
2023/11/06 05:06:15;;;;;;;7.93;1.75;;;;;;;10.81;100.00;99632.28;5335730;27;20034;-73
2023/11/06 05:08:46;;;;;;;6.10;1.70;;;;;;;10.88;100.00;99639.34;5333973;27;20035;-73
2023/11/06 05:11:18;;;;;;;7.07;1.48;;;;;;;10.86;100.00;99640.47;5334737;27;20121;-73
2023/11/06 05:13:51;;;;;;;7.10;1.65;;;;;;;10.85;100.00;99628.38;5332330;27;20095;-73
2023/11/06 05:16:23;;;;;;;6.63;1.50;;;;;;;10.94;100.00;99650.97;5333917;27;20027;-73
2023/11/06 05:18:55;;;;;;;6.50;2.13;;;;;;;10.86;100.00;99640.47;5333570;27;20039;-73
2023/11/06 05:21:27;;;;;;;10.60;2.20;;;;;;;10.93;100.00;99650.16;5330509;27;20027;-73
2023/11/06 05:23:59;;;;;;;7.45;1.90;;;;;;;10.96;100.00;99654.25;5333829;27;20034;-73
2023/11/06 05:26:30;;;;;;;9.93;2.60;;;;;;;10.99;100.00;99650.50;5332481;27;20037;-74
2023/11/06 05:29:02;;;;;;;8.40;1.98;;;;;;;10.96;100.00;99649.84;5329828;27;20465;-73
2023/11/06 05:31:34;;;;;;;10.02;2.25;;;;;;;11.00;100.00;99649.53;5327886;27;20504;-73
2023/11/06 05:34:06;;;;;;;8.75;2.05;;;;;;;11.03;100.00;99657.06;5330945;27;20389;-74
2023/11/06 05:36:40;;;;;;;11.00;2.60;;;;;;;11.05;100.00;99652.47;5331014;27;20121;-74
2023/11/06 05:39:12;;;;;;;9.90;2.55;;;;;;;11.07;100.00;99651.31;5332487;27;20023;-74
2023/11/06 05:41:48;;;;;;;9.77;2.42;;;;;;;11.15;100.00;99663.63;5332569;27;20039;-74
2023/11/06 05:44:19;;;;;;;8.50;2.75;;;;;;;11.07;100.00;99653.13;5334593;27;20336;-74
2023/11/06 05:46:51;;;;;;;12.20;2.88;;;;;;;11.14;100.00;99662.00;5333484;27;20031;-74
2023/11/06 05:49:23;;;;;;;9.75;2.70;;;;;;;11.14;100.00;99654.94;5332352;27;20031;-73
2023/11/06 05:51:55;;;;;;;11.23;2.30;;;;;;;11.15;100.00;99661.81;5332272;27;20050;-74
2023/11/06 05:54:27;;;;;;;10.52;2.70;;;;;;;11.14;100.00;99670.66;5334008;27;20511;-74
2023/11/06 05:57:00;;;;;;;8.05;2.47;;;;;;;11.20;100.00;99674.44;5325756;27;20035;-74
2023/11/06 05:59:31;;;;;;;10.88;2.97;;;;;;;11.24;100.00;99680.16;5324282;27;20047;-74
2023/11/06 06:02:03;;;;;;;12.13;3.55;;;;;;;11.23;100.00;99689.03;5331099;27;20053;-74
2023/11/06 06:04:37;;;;;;;10.98;2.35;;;;;;;11.27;100.00;99693.78;5332448;28;20591;-73
2023/11/06 06:07:09;;;;;;;;;;;;;;;11.85;100.00;99710.34;5333411;27;20034;-74
2023/11/06 06:09:42;;;;;;;10.60;2.88;;;;;;;11.31;100.00;99708.19;5338381;27;19926;-73
2023/11/06 06:12:14;;;;;;;9.00;2.67;;;;;;;11.37;100.00;99711.97;5321878;27;20050;-74
2023/11/06 06:14:46;;;;;;;8.23;2.15;;;;;;;11.32;100.00;99712.44;5338161;27;20027;-74
2023/11/06 06:17:18;;;;;;;11.40;3.05;;;;;;;11.34;100.00;99707.88;5341131;27;20465;-74
2023/11/06 06:19:50;;;;;;;10.68;2.25;;;;;;;11.34;100.00;99707.06;5340168;27;20480;-74
2023/11/06 06:22:22;;;;;;;8.05;2.47;;;;;;;11.35;100.00;99708.69;5335003;27;20357;-74
2023/11/06 06:24:54;;;;;;;13.15;2.88;;;;;;;11.34;100.00;99707.88;5321425;27;20663;-74
2023/11/06 06:27:26;;;;;;;11.23;2.35;;;;;;;11.32;100.00;99699.34;5340193;27;20041;-74
2023/11/06 06:29:58;;;;;;;11.25;2.58;;;;;;;11.29;100.00;99691.81;5335331;27;20045;-74
2023/11/06 06:32:30;;;;;;;11.77;2.50;;;;;;;11.31;100.00;99705.56;5338346;27;20031;-74
2023/11/06 06:35:04;;;;;;;12.48;2.38;;;;;;;11.21;100.00;99702.28;5338987;27;20387;-73
2023/11/06 06:37:36;;;;;;;12.32;2.85;;;;;;;11.19;100.00;99718.19;5340369;27;20625;-73
2023/11/06 06:40:10;;;;;;;7.68;2.08;;;;;;;11.15;100.00;99708.19;5339740;27;20031;-74
2023/11/06 06:42:42;;;;;;;10.07;2.20;;;;;;;11.10;100.00;99705.22;5338665;27;20019;-73
2023/11/06 06:45:14;;;;;;;8.43;2.28;;;;;;;11.20;100.00;99724.25;5342603;27;20547;-74
2023/11/06 06:47:45;;;;;;;10.45;2.35;;;;;;;11.16;100.00;99720.31;5343027;27;20502;-73
2023/11/06 06:50:17;;;;;;;10.98;2.75;;;;;;;11.16;100.00;99734.22;5336075;27;20024;-74
2023/11/06 06:52:49;;;;;;;8.27;2.33;;;;;;;11.11;100.00;99727.84;5306120;27;20047;-74
2023/11/06 06:55:23;;;;;;;10.85;2.25;;;;;;;11.09;100.00;99733.22;5341966;27;20107;-74
2023/11/06 06:57:59;;;;;;;10.60;2.08;;;;;;;11.10;100.00;99736.66;5341503;27;20019;-74
2023/11/06 07:00:32;;;;;;;7.63;2.38;;;;;;;11.10;100.00;99741.91;5340319;27;20039;-73
2023/11/06 07:03:05;;;;;;;;;;;;;;;11.72;100.00;99752.81;5342000;27;20370;-74
2023/11/06 07:05:38;;;;;;;9.77;2.45;;;;;;;11.12;100.00;99750.44;5341037;27;19923;-74
2023/11/06 07:08:10;;;;;;;;;;;;;;;11.76;100.00;99767.25;5339483;27;20472;-74
2023/11/06 07:10:42;;;;;;;9.13;2.53;;;;;;;11.12;100.00;99755.69;5339745;27;19918;-74
2023/11/06 07:13:14;;;;;;;7.07;2.00;;;;;;;11.04;100.00;99755.66;5342654;27;20126;-74
2023/11/06 07:15:45;;;;;;;10.90;2.75;;;;;;;11.04;100.00;99766.16;5339753;27;20025;-74
2023/11/06 07:18:18;;;;;;;9.45;2.35;;;;;;;11.00;100.00;99777.94;5332042;27;20033;-73
2023/11/06 07:20:50;;;;;;;10.27;2.65;;;;;;;10.97;100.00;99755.47;5336462;27;20027;-73
2023/11/06 07:23:24;;;;;;;13.18;2.20;;;;;;;10.99;100.00;99779.75;5334976;27;20034;-74
2023/11/06 07:25:55;;;;;;;;;;;;;;;11.69;100.00;99780.19;5336169;27;20030;-74
2023/11/06 07:28:27;;;;;;;7.45;1.95;;;;;;;11.05;100.00;99788.75;5328195;27;20403;-73
2023/11/06 07:30:59;;;;;;;9.18;2.00;;;;;;;11.02;100.00;99787.25;5330882;27;20043;-74
2023/11/06 07:33:31;;;;;;;10.18;2.55;;;;;;;11.00;100.00;99789.22;5330442;27;20057;-73
2023/11/06 07:36:03;;;;;;;12.52;2.47;;;;;;;11.00;100.00;99791.03;5331553;27;20031;-73
2023/11/06 07:38:35;;;;;;;10.73;2.67;;;;;;;11.05;100.00;99789.56;5335624;27;20023;-73
2023/11/06 07:41:11;;;;;;;9.57;2.65;;;;;;;11.09;100.00;99793.50;5333138;27;20026;-73
2023/11/06 07:43:43;;;;;;;11.20;3.03;;;;;;;11.02;100.00;99782.00;5322989;27;20027;-73
2023/11/06 07:46:19;;;;;;;12.02;2.60;;;;;;;11.17;100.00;99804.03;5330874;27;20038;-73
2023/11/06 07:48:52;;;;;;;9.65;2.28;;;;;;;11.11;100.00;99790.75;5334607;27;20031;-73
2023/11/06 07:51:24;;;;;;;10.50;2.40;;;;;;;11.12;100.00;99793.19;5334924;27;20193;-74
2023/11/06 07:53:56;;;;;;;11.98;2.72;;;;;;;11.13;100.00;99796.63;5332687;27;20038;-74
2023/11/06 07:56:29;;;;;;;12.00;2.70;;;;;;;11.20;100.00;99801.09;5333226;27;20031;-73
2023/11/06 07:59:02;;;;;;;12.77;3.13;;;;;;;11.36;100.00;99800.28;5334911;27;20360;-74
2023/11/06 08:01:34;;;;;;;11.10;2.55;;;;;;;11.38;100.00;99798.34;5336715;27;20039;-74
2023/11/06 08:04:07;;;;;;;10.32;2.25;;;;;;;11.43;100.00;99801.28;5331993;27;20028;-73
2023/11/06 08:06:39;;;;;;;9.13;2.00;;;;;;;11.50;100.00;99800.66;5338114;27;20023;-73
2023/11/06 08:09:11;;;;;;;13.10;2.70;;;;;;;11.51;100.00;99803.13;5337050;27;20456;-73
2023/11/06 08:11:43;;;;;;;8.85;2.58;;;;;;;11.54;100.00;99804.59;5326747;27;20374;-74
2023/11/06 08:14:15;;;;;;;11.10;2.55;;;;;;;11.55;100.00;99814.91;5339981;27;20085;-74
2023/11/06 08:16:47;;;;;;;8.82;2.00;;;;;;;11.54;100.00;99812.47;5339799;27;20022;-74
2023/11/06 08:19:19;;;;;;;10.60;2.40;;;;;;;11.55;100.00;99828.03;5339323;27;20110;-74
2023/11/06 08:21:50;;;;;;;11.30;3.25;;;;;;;11.55;100.00;99825.41;5337678;27;20023;-74
2023/11/06 08:24:22;;;;;;;11.02;2.40;;;;;;;11.55;100.00;99830.66;5339955;27;20110;-73
2023/11/06 08:26:54;;;;;;;10.55;2.30;;;;;;;11.53;100.00;99837.06;5337225;27;20109;-74
2023/11/06 08:29:27;;;;;;;9.85;2.15;;;;;;;11.54;100.00;99836.09;5341156;27;20114;-74
2023/11/06 08:32:00;;;;;;;9.93;2.70;;;;;;;11.47;100.00;99822.78;5337452;27;20404;-74
2023/11/06 08:34:32;;;;;;;8.50;2.58;;;;;;;11.52;100.00;99836.25;5337907;27;20034;-73
2023/11/06 08:37:04;;;;;;;12.98;3.08;;;;;;;11.59;100.00;99839.03;5337875;27;20536;-74
2023/11/06 08:39:46;;;;;;;12.05;2.88;;;;;;;11.63;100.00;99843.81;5329276;27;20520;-73
2023/11/06 08:42:18;;;;;;;12.27;2.85;;;;;;;11.59;100.00;99846.91;5338313;27;20027;-74
2023/11/06 08:44:50;;;;;;;12.27;3.03;;;;;;;11.62;100.00;99846.59;5336816;27;20056;-74
2023/11/06 08:47:23;;;;;;;12.15;2.50;;;;;;;11.64;100.00;99852.50;5339242;27;20042;-74
2023/11/06 08:49:55;;;;;;;12.80;2.70;;;;;;;11.59;100.00;99845.13;5337786;27;20076;-74
2023/11/06 08:52:27;;;;;;;14.23;2.67;;;;;;;11.66;100.00;99832.97;5339761;27;20042;-74
2023/11/06 08:54:59;;;;;;;10.80;2.53;;;;;;;11.63;100.00;99832.47;5338064;27;20094;-74
2023/11/06 08:57:31;;;;;;;8.95;2.45;;;;;;;11.68;100.00;99849.38;5337936;27;20095;-74
2023/11/06 09:00:08;;;;;;;9.73;3.03;;;;;;;11.65;100.00;99849.72;5335080;27;20138;-74
2023/11/06 09:02:40;;;;;;;11.85;2.70;;;;;;;11.75;100.00;99873.19;5335914;27;20045;-74
2023/11/06 09:05:14;;;;;;;9.05;2.58;;;;;;;11.83;100.00;99869.75;5339135;27;20031;-75
2023/11/06 09:07:47;;;;;;;9.82;2.20;;;;;;;11.82;100.00;99862.84;5336982;27;20469;-75
2023/11/06 09:10:19;;;;;;;11.98;2.40;;;;;;;11.92;100.00;99859.13;5337238;27;20015;-74
2023/11/06 09:12:51;;;;;;;9.13;2.45;;;;;;;11.97;100.00;99865.69;5335329;27;20392;-74
2023/11/06 09:15:23;;;;;;;8.85;2.13;;;;;;;12.07;100.00;99877.66;5334946;27;20027;-74
2023/11/06 09:17:55;;;;;;;9.25;2.30;;;;;;;12.10;100.00;99872.09;5337014;27;20027;-74
2023/11/06 09:20:27;;;;;;;10.68;2.60;;;;;;;12.16;100.00;99876.72;5336596;27;20027;-75
2023/11/06 09:23:00;;;;;;;11.23;2.55;;;;;;;12.19;100.00;99886.03;5338776;27;20034;-75
2023/11/06 09:25:33;;;;;;;11.57;2.70;;;;;;;12.16;100.00;99889.03;5336035;27;20031;-75
2023/11/06 09:28:05;;;;;;;12.38;2.45;;;;;;;12.21;100.00;99889.34;5333843;27;20050;-74
2023/11/06 09:30:36;;;;;;;9.00;2.13;;;;;;;12.22;100.00;99890.16;5337229;27;20027;-74
2023/11/06 09:33:08;;;;;;;11.85;3.65;;;;;;;12.19;100.00;99888.66;5327571;27;20118;-74
2023/11/06 09:35:40;;;;;;;12.23;2.80;;;;;;;12.28;100.00;99895.56;5338186;27;20023;-74
2023/11/06 09:38:14;;;;;;;14.75;3.10;;;;;;;12.27;100.00;99891.28;5337886;27;20026;-74
2023/11/06 09:40:46;;;;;;;11.98;3.15;;;;;;;12.24;100.00;99896.88;5337519;27;20030;-75
2023/11/06 09:43:18;;;;;;;9.35;2.67;;;;;;;12.31;100.00;99897.88;5335112;27;20042;-74
2023/11/06 09:45:51;;;;;;;8.18;2.83;;;;;;;12.35;100.00;99895.72;5332550;27;20031;-74
2023/11/06 09:48:29;;;;;;;10.23;2.90;;;;;;;12.55;100.00;99906.72;5317716;27;20484;-75
2023/11/06 09:51:13;;;;;;;10.55;2.17;;;;;;;12.58;100.00;99901.97;5338174;27;20465;-74
2023/11/06 09:53:46;;;;;;;9.60;2.58;;;;;;;12.38;100.00;99898.84;5336374;27;20031;-75
2023/11/06 09:56:19;;;;;;;9.55;2.35;;;;;;;12.43;100.00;99900.19;5335779;27;20027;-74
2023/11/06 09:58:51;;;;;;;9.65;2.90;;;;;;;12.47;100.00;99920.69;5334826;27;20562;-75
2023/11/06 10:01:27;;;;;;;11.10;2.97;;;;;;;12.36;100.00;99908.69;5330897;27;20051;-75
2023/11/06 10:04:00;;;;;;;7.80;2.03;;;;;;;12.49;100.00;99910.81;5336755;27;20043;-74
2023/11/06 10:06:32;;;;;;;9.63;2.28;;;;;;;12.60;100.00;99920.19;5336496;28;20480;-75
2023/11/06 10:09:23;;;;;;;11.25;2.80;;;;;;;12.78;100.00;99920.81;5335348;28;20023;-75
2023/11/06 10:12:14;;;;;;;10.95;2.33;;;;;;;12.89;100.00;99933.63;5335746;28;20043;-75
2023/11/06 10:14:46;;;;;;;6.10;1.70;;;;;;;12.55;100.00;99933.00;5336059;28;20035;-74
2023/11/06 10:17:22;;;;;;;7.35;2.30;;;;;;;12.70;100.00;99933.97;5336179;28;20026;-75
2023/11/06 10:20:16;;;;;;;10.50;2.53;;;;;;;12.74;100.00;99937.09;5336511;27;20031;-75
2023/11/06 10:22:56;;;;;;;9.50;2.63;;;;;;;12.82;100.00;99940.53;5337054;28;20038;-75
2023/11/06 10:25:29;;;;;;;10.10;2.60;;;;;;;12.64;100.00;99937.25;5335186;28;20483;-75
2023/11/06 10:28:00;;;;;;;12.32;3.05;;;;;;;12.74;100.00;99932.66;5331079;28;20789;-75
2023/11/06 10:30:54;;;;;;;11.98;2.60;;;;;;;12.91;100.00;99946.56;5332432;28;20027;-75
2023/11/06 10:33:29;;;;;;;7.60;2.63;;;;;;;12.90;100.00;99939.69;5336643;28;20027;-74
2023/11/06 10:36:01;;;;;;;12.02;2.30;;;;;;;12.92;100.00;99945.63;5336826;28;20031;-74
2023/11/06 10:38:33;;;;;;;9.13;2.30;;;;;;;12.95;100.00;99954.94;5336553;28;20019;-74
2023/11/06 10:41:25;;;;;;;9.73;2.35;;;;;;;13.14;100.00;99951.94;5338593;28;20618;-75
2023/11/06 10:44:00;;;;;;;9.00;2.90;;;;;;;13.07;100.00;99951.00;5335324;28;20027;-74
2023/11/06 10:46:36;;;;;;;9.57;2.35;;;;;;;13.01;100.00;99954.28;5336892;28;20039;-75
2023/11/06 10:49:17;;;;;;;9.52;2.33;;;;;;;13.18;100.00;99955.06;5311686;28;20056;-74
2023/11/06 10:51:53;;;;;;;9.38;2.40;;;;;;;13.19;100.00;99960.19;5336278;28;20053;-75
2023/11/06 10:54:27;;;;;;;7.45;2.30;;;;;;;13.20;100.00;99947.84;5337175;27;20369;-75
2023/11/06 10:57:00;;;;;;;7.60;2.45;;;;;;;13.16;100.00;99957.88;5332102;27;20039;-75
2023/11/06 10:59:32;;;;;;;9.88;2.58;;;;;;;13.20;100.00;99953.09;5337690;27;20043;-75
2023/11/06 11:02:05;;;;;;;8.30;2.28;;;;;;;13.14;100.00;99954.56;5339228;27;20476;-75
2023/11/06 11:04:40;;;;;;;8.25;2.40;;;;;;;13.15;100.00;99958.88;5319047;27;20046;-75
2023/11/06 11:07:13;;;;;;;10.32;2.42;;;;;;;13.20;100.00;99945.22;5340736;27;20031;-75
2023/11/06 11:09:45;;;;;;;;;;;;;;;13.87;100.00;99949.06;5338692;27;20027;-75
2023/11/06 11:12:17;;;;;;;9.82;2.20;;;;;;;13.42;100.00;99956.84;5338330;27;19907;-75
2023/11/06 11:14:49;;;;;;;6.75;2.25;;;;;;;13.50;100.00;99954.19;5337793;27;20027;-75
2023/11/06 11:17:21;;;;;;;9.82;2.83;;;;;;;13.57;100.00;99944.63;5340410;27;20027;-75
2023/11/06 11:20:04;;;;;;;7.25;2.33;;;;;;;13.53;100.00;99938.88;5337784;27;20083;-75
2023/11/06 11:23:10;;;;;;;7.82;2.40;;;;;;;13.92;100.00;99958.25;5339277;27;20054;-75
2023/11/06 11:25:58;;;;;;;9.55;2.33;;;;;;;13.73;100.00;99956.88;5273706;27;20404;-75
2023/11/06 11:28:51;;;;;;;9.57;2.42;;;;;;;13.80;100.00;99957.81;5338431;27;20035;-74
2023/11/06 11:31:44;;;;;;;8.07;2.13;;;;;;;13.83;100.00;99957.50;5340000;27;20395;-74
2023/11/06 11:34:27;;;;;;;8.80;2.65;;;;;;;13.70;100.00;99951.94;5337608;27;20391;-75
2023/11/06 11:37:19;;;;;;;10.40;2.55;;;;;;;13.53;100.00;99948.59;5337835;27;20035;-75
2023/11/06 11:39:58;;;;;;;7.43;2.10;;;;;;;13.58;100.00;99951.50;5322241;27;20035;-75
2023/11/06 11:42:30;;;;;;;9.90;2.20;;;;;;;13.59;100.00;99951.31;5338975;27;20468;-75
2023/11/06 11:45:06;;;;;;;9.23;2.22;;;;;;;13.68;100.00;99952.13;5338093;27;20022;-75
2023/11/06 11:47:47;;;;;;;7.28;2.13;;;;;;;13.90;100.00;99947.06;5337652;27;20484;-75
2023/11/06 11:50:36;;;;;;;9.65;2.33;;;;;;;13.92;100.00;99942.44;5339119;27;20038;-74
2023/11/06 11:53:10;;;;;;;7.53;2.85;;;;;;;13.77;100.00;99948.44;5330383;27;20031;-75